Weather observations for the past three days for
Altus, Altus/Quartz Mountain Regional Airport
Imperial (Metric)
Date Time (cdt) Wind (mph) Vis. (mi.) Weather Sky Cond. Temperature (ºF) Relative Humidity Wind Chill (°F) Heat Index (°F) Pressure Precipitation (in)
Air Dwpt 6 hour altimeter (in) sea level (mb) 1 hr 3 hr 6 hr
Max. Min.
09 06:35 N 8 10.00 Fair CLR 55.4 55.4 100% 29.85 0.0
09 06:15 N 8 10.00 Fair CLR 55.4 55.4 100% 29.85 0.0
09 05:55 N 6 10.00 Fair CLR 55.4 55.4 100% 29.85 0.0
09 05:35 N 7 10.00 Fair CLR 55.4 55.4 100% 29.85 0.0
09 05:15 N 8 10.00 Fair CLR 57.2 57.2 100% 29.84 0.0
09 04:55 N 8 10.00 Fair CLR 57.2 57.2 100% 29.84 0.0
09 04:35 N 7 10.00 Fair CLR 57.2 57.2 100% 29.84 0.0
09 04:15 N 6 10.00 Fair CLR 59 57.2 94% 29.84 0.0
09 03:55 NE 7 10.00 Fair CLR 60.8 59 94% 29.85 0.0
09 03:35 N 7 10.00 Fair CLR 59 59 100% 29.86 0.0
09 02:55 NE 7 10.00 Fair CLR 59 57.2 94% 29.86 0.0
09 02:35 N 8 10.00 Fair CLR 59 59 100% 29.87 0.0
09 02:15 N 9 10.00 Fair CLR 59 59 100% 29.87 0.0
09 01:55 N 7 10.00 Fair CLR 60.8 59 94% 29.87 0.0
09 01:35 NE 6 10.00 Fair CLR 62.6 60.8 94% 29.87 0.0
09 01:15 E 8 10.00 Fair CLR 62.6 60.8 94% 29.87 0.0
09 00:55 SE 8 10.00 Fair CLR 64.4 60.8 88% 29.86 0.0
09 00:35 E 8 10.00 Fair CLR 64.4 60.8 88% 29.87 0.0
09 00:15 SE 6 10.00 Fair CLR 66.2 62.6 88% 29.86 0.0
08 23:55 SE 13 10.00 Fair CLR 66.2 62.6 88% 29.86 0.0
08 23:35 SE 12 10.00 Fair CLR 66.2 51.8 60% 29.85 0.0
08 23:15 E 9 10.00 Fair CLR 69.8 48.2 46% 29.84 0.0
08 22:55 E 8 10.00 Fair CLR 71.6 46.4 41% 29.83 0.0
08 22:35 E 9 10.00 Fair CLR 71.6 50 47% 29.82 0.0
08 22:19 E 8 10.00 Fair CLR 71.6 53.6 53% 29.8 0.0
08 21:35 NE 7 10.00 Fair CLR 73.4 55.4 53% 29.8 0.0
08 21:15 NE 8 10.00 Fair CLR 75.2 55.4 50% 78 29.79 0.0
08 20:55 NE 9 10.00 Fair CLR 75.2 60.8 61% 77 29.78 0.0
08 20:35 NE 8 10.00 Fair CLR 77 60.8 57% 79 29.77 0.0
08 20:15 NE 9 10.00 Fair CLR 80.6 59 48% 81 29.76 0.0
08 19:35 E 16 G 22 10.00 Mostly Cloudy BKN110 84.2 59 43% 84 29.73 0.0
08 19:15 SE 9 9.00 Mostly Cloudy BKN120 BKN140 89.6 55.4 31% 88 29.71 0.0
08 18:55 SE 8 10.00 Overcast OVC110 89.6 55.4 31% 88 29.7 0.0
08 18:35 S 13 8.00 Overcast BKN110 OVC140 89.6 55.4 31% 88 29.69 0.0
08 18:13 SE 9 10.00 Mostly Cloudy BKN110 BKN130 91.4 55.4 30% 90 29.69 0.0
08 17:57 SE 12 10.00 Partly Cloudy SCT100 SCT120 89.6 55.4 31% 88 29.69 0.0
08 17:17 SE 5 G 15 10.00 Mostly Cloudy SCT090 BKN120 BKN140 89.6 53.6 29% 87 29.7 0.0
08 16:55 S 6 G 13 9.00 Mostly Cloudy SCT090 BKN120 BKN140 89.6 53.6 29% 87 29.7 0.0
08 16:35 S 8 G 16 10.00 Partly Cloudy FEW090 SCT120 SCT140 89.6 53.6 29% 87 29.71 0.0
08 16:13 Vrbl 6 G 13 9.00 Partly Cloudy SCT080 SCT110 91.4 53.6 28% 89 29.71 0.0
08 15:49 S 7 G 18 9.00 A Few Clouds FEW080 FEW100 89.6 51.8 27% 87 29.73 0.0
08 15:35 SW 8 G 16 10.00 A Few Clouds FEW075 91.4 53.6 28% 89 29.73 0.0
08 15:15 SW 13 G 23 10.00 A Few Clouds FEW070 FEW085 89.6 55.4 31% 88 29.74 0.0
08 14:55 S 6 G 21 10.00 A Few Clouds FEW065 87.8 55.4 33% 86 29.76 0.0
08 14:35 SW 8 G 18 10.00 Fair CLR 87.8 55.4 33% 86 29.76 0.0
08 14:15 SW 10 G 17 10.00 Fair CLR 86 55.4 35% 85 29.77 0.0
08 13:55 SW 8 G 18 10.00 Fair CLR 86 55.4 35% 85 29.78 0.0
08 13:35 SW 14 10.00 Fair CLR 84.2 57.2 40% 83 29.79 0.0
08 13:15 SW 12 G 21 10.00 Fair CLR 82.4 57.2 42% 82 29.81 0.0
08 12:55 SW 10 G 17 10.00 Fair CLR 80.6 57.2 45% 81 29.82 0.0
08 12:35 SW 13 G 21 10.00 Fair CLR 80.6 57.2 45% 81 29.83 0.0
08 12:15 S 14 G 21 10.00 Fair CLR 80.6 57.2 45% 81 29.84 0.0
08 11:55 S 14 G 20 10.00 Fair CLR 78.8 55.4 45% 79 29.85 0.0
08 11:35 S 14 G 21 10.00 Fair CLR 77 55.4 47% 79 29.86 0.0
08 11:15 S 15 10.00 Fair CLR 77 53.6 44% 78 29.88 0.0
08 10:54 SW 13 10.00 Partly Cloudy SCT023 73.4 51.8 47% 29.89 0.0
08 10:35 S 12 G 18 10.00 Mostly Cloudy BKN023 71.6 51.8 50% 29.9 0.0
08 10:15 S 13 10.00 Fair CLR 71.6 51.8 50% 29.9 0.0
08 09:55 S 13 10.00 Partly Cloudy SCT036 68 50 53% 29.91 0.0
08 09:35 S 13 10.00 Overcast SCT028 OVC036 66.2 48.2 52% 29.92 0.0
08 09:15 S 10 10.00 Overcast OVC027 64.4 50 60% 29.93 0.0
08 08:55 S 10 10.00 Overcast BKN024 OVC028 62.6 50 64% 29.93 0.0
08 08:15 SE 8 10.00 Overcast OVC025 60.8 51.8 72% 29.93 0.0
08 07:35 SE 7 10.00 Overcast BKN021 BKN026 OVC030 57.2 51.8 82% 29.93 0.0
08 07:16 SE 5 10.00 Overcast OVC029 55.4 51.8 88% 29.92 0.0
08 06:55 SE 6 10.00 Mostly Cloudy BKN029 53.6 50 88% 29.92 0.0
08 06:35 SE 7 10.00 Fair CLR 51.8 50 94% 29.92 0.0
08 06:08 SE 7 10.00 Fair CLR 51.8 50 94% 29.92 0.0
08 05:55 SE 7 10.00 Fair CLR 50 48.2 94% 48 29.91 0.0
08 05:33 E 7 10.00 Fair CLR 51.8 48.2 88% 29.91 0.0
08 05:15 SE 8 10.00 Fair CLR 53.6 50 88% 29.91 0.0
08 04:55 SE 6 10.00 Fair CLR 53.6 50 88% 29.91 0.0
08 04:35 SE 6 10.00 Fair CLR 55.4 50 82% 29.91 0.0
08 04:15 S 7 10.00 Fair CLR 55.4 50 82% 29.91 0.0
08 03:55 Calm 0.00 Fair CLR 0 0 0% 29.91 0.0
08 03:35 S 6 10.00 Fair CLR 57.2 50 77% 29.92 0.0
08 03:15 S 8 10.00 Fair CLR 59 50 72% 29.93 0.0
08 02:35 S 10 10.00 Fair CLR 60.8 50 68% 29.93 0.0
08 02:15 S 12 10.00 Fair CLR 60.8 50 68% 29.94 0.0
08 01:55 S 12 10.00 Fair CLR 60.8 50 68% 29.94 0.0
08 01:36 S 14 10.00 Fair CLR 60.8 48.2 63% 29.94 0.0
08 01:15 S 13 10.00 Fair CLR 62.6 48.2 60% 29.94 0.0
08 00:48 S 12 10.00 Fair CLR 62.6 48.2 60% 29.95 0.0
08 00:35 SE 13 10.00 Fair CLR 62.6 48.2 60% 29.95 0.0
08 00:15 S 14 10.00 Fair CLR 62.6 46.4 56% 29.95 0.0
07 23:55 S 14 10.00 Fair CLR 64.4 46.4 52% 29.96 0.0
07 23:35 SE 15 10.00 Fair CLR 64.4 46.4 52% 29.96 0.0
07 23:15 SE 14 10.00 Fair CLR 64.4 46.4 52% 29.96 0.0
07 22:55 SE 12 10.00 Fair CLR 64.4 46.4 52% 29.95 0.0
07 22:35 SE 14 10.00 Fair CLR 66.2 44.6 46% 29.95 0.0
07 21:57 SE 10 10.00 Fair CLR 66.2 41 40% 29.94 0.0
07 21:35 SE 10 10.00 Fair CLR 69.8 41 35% 29.93 0.0
07 21:15 SE 12 10.00 Fair CLR 71.6 41 33% 29.93 0.0
07 20:55 S 12 10.00 Fair CLR 69.8 39.2 33% 29.92 0.0
07 20:35 SE 12 10.00 Fair CLR 71.6 39.2 31% 29.92 0.0
07 20:15 SE 13 10.00 Fair CLR 73.4 39.2 29% 29.92 0.0
07 19:55 SE 12 10.00 Fair CLR 75.2 37.4 25% 77 29.91 0.0
07 19:35 S 9 10.00 Fair CLR 77 35.6 22% 77 29.92 0.0
07 19:15 S 9 10.00 Fair CLR 77 35.6 22% 77 29.92 0.0
07 18:55 S 10 10.00 Fair CLR 78.8 35.6 21% 78 29.92 0.0
07 18:15 S 10 10.00 Fair CLR 78.8 35.6 21% 78 29.92 0.0
07 17:55 S 12 10.00 Fair CLR 78.8 35.6 21% 78 29.93 0.0
07 17:35 SW 9 10.00 Fair CLR 78.8 35.6 21% 78 29.93 0.0
07 17:15 E 5 10.00 Fair CLR 77 35.6 22% 77 29.94 0.0
07 16:53 Vrbl 7 G 13 10.00 Fair CLR 77 35.6 22% 77 29.94 0.0
07 16:35 Vrbl 6 G 13 10.00 Fair CLR 77 35.6 22% 77 29.95 0.0
07 16:15 Vrbl 5 G 12 10.00 Fair CLR 77 37.4 24% 77 29.95 0.0
07 15:55 W 10 10.00 Fair CLR 77 37.4 24% 77 29.97 0.0
07 15:35 Vrbl 6 G 12 10.00 Fair CLR 75.2 37.4 25% 77 29.98 0.0
07 15:15 W 8 10.00 Fair CLR 75.2 37.4 25% 77 29.99 0.0
07 14:35 Vrbl 7 G 15 10.00 Fair CLR 73.4 39.2 29% 30.02 0.0
07 14:15 Calm 10.00 Fair CLR 71.6 39.2 31% 30.03 0.0
07 13:55 Vrbl 7 10.00 Fair CLR 71.6 39.2 31% 30.04 0.0
07 13:35 W 9 10.00 Fair CLR 71.6 41 33% 30.05 0.0
07 13:15 Vrbl 6 G 12 10.00 Fair CLR 69.8 41 35% 30.07 0.0
07 12:55 SW 8 G 14 10.00 Fair CLR 68 41 38% 30.08 0.0
07 12:15 Vrbl 5 G 12 10.00 Fair CLR 66.2 39.2 37% 30.1 0.0
07 11:55 Vrbl 5 G 13 10.00 Fair CLR 66.2 41 40% 30.11 0.0
07 11:35 W 8 G 14 10.00 Fair CLR 64.4 39.2 40% 30.12 0.0
07 10:50 Vrbl 5 10.00 Fair CLR 60.8 39.2 45% 30.13 0.0
07 10:35 W 6 10.00 Fair CLR 60.8 39.2 45% 30.14 0.0
07 10:15 Calm 10.00 Fair CLR 59 39.2 48% 30.15 0.0
07 09:55 Calm 10.00 Fair CLR 59 39.2 48% 30.15 0.0
07 09:35 Calm 10.00 Fair CLR 57.2 39.2 51% 30.16 0.0
07 09:15 N 6 10.00 Fair CLR 57.2 42.8 59% 30.16 0.0
07 08:55 N 8 10.00 Fair CLR 55.4 42.8 63% 30.16 0.0
07 08:35 N 9 10.00 Fair CLR 53.6 42.8 67% 30.16 0.0
07 08:15 N 9 10.00 Fair CLR 51.8 42.8 72% 30.16 0.0
07 07:55 N 12 10.00 Fair CLR 50 42.8 76% 46 30.16 0.0
07 07:35 N 9 10.00 Fair CLR 48.2 41 76% 45 30.16 0.0
07 07:15 N 8 10.00 Fair CLR 44.6 39.2 81% 41 30.15 0.0
07 06:55 N 8 10.00 Fair CLR 42.8 37.4 81% 39 30.15 0.0
07 06:35 N 9 10.00 Fair CLR 42.8 37.4 81% 38 30.14 0.0
07 05:55 N 8 10.00 Fair CLR 42.8 37.4 81% 39 30.14 0.0
07 05:33 N 8 10.00 Fair CLR 44.6 37.4 76% 41 30.13 0.0
07 05:15 N 8 10.00 Fair CLR 44.6 37.4 76% 41 30.13 0.0
07 04:55 N 9 10.00 Fair CLR 42.8 37.4 81% 38 30.13 0.0
07 04:35 N 8 10.00 Fair CLR 42.8 37.4 81% 39 30.13 0.0
07 04:15 NW 6 10.00 Fair CLR 44.6 37.4 76% 42 30.13 0.0
07 03:55 N 8 10.00 Fair CLR 44.6 37.4 76% 41 30.13 0.0
07 03:32 NW 6 10.00 Fair CLR 46.4 37.4 71% 44 30.13 0.0
07 03:10 Calm 10.00 Fair CLR 46.4 37.4 71% 30.12 0.0
07 02:55 N 7 10.00 Fair CLR 46.4 37.4 71% 43 30.12 0.0
07 02:35 N 7 10.00 Fair CLR 48.2 37.4 66% 46 30.11 0.0
07 02:15 N 9 G 15 10.00 Fair CLR 50 37.4 62% 47 30.13 0.0
07 01:51 N 9 10.00 Fair CLR 48.2 37.4 66% 45 30.13 0.0
07 01:35 N 7 10.00 Fair CLR 50 37.4 62% 48 30.13 0.0
07 01:15 N 9 10.00 Fair CLR 50 37.4 62% 47 30.13 0.0
07 00:55 N 9 10.00 Fair CLR 51.8 37.4 58% 30.13 0.0
07 00:35 N 10 10.00 Fair CLR 51.8 37.4 58% 30.12 0.0
07 00:15 N 12 10.00 Fair CLR 51.8 39.2 62% 30.12 0.0
06 23:35 NE 10 10.00 Fair CLR 53.6 39.2 58% 30.12 0.0
06 23:15 NE 8 10.00 Fair CLR 53.6 39.2 58% 30.11 0.0
06 22:55 NE 10 10.00 Fair CLR 55.4 39.2 55% 30.09 0.0
06 22:35 NE 9 10.00 Fair CLR 55.4 39.2 55% 30.08 0.0
06 22:15 NE 8 10.00 Fair CLR 55.4 39.2 55% 30.06 0.0
06 21:55 NE 8 10.00 Fair CLR 57.2 39.2 51% 30.05 0.0
06 21:37 NE 9 10.00 Fair CLR 59 39.2 48% 30.04 0.0
06 20:57 NE 9 10.00 Fair CLR 60.8 39.2 45% 30.03 0.0
06 20:35 NE 9 G 15 10.00 Fair CLR 60.8 39.2 45% 30.02 0.0
06 20:15 NE 13 10.00 Fair CLR 62.6 39.2 42% 30 0.0
06 19:58 NE 15 10.00 Fair CLR 64.4 39.2 40% 30 0.0
06 19:35 NE 10 G 17 10.00 Fair CLR 66.2 39.2 37% 30 0.0
06 19:15 NE 14 G 20 10.00 Fair CLR 66.2 39.2 37% 29.99 0.0
06 18:55 NE 14 10.00 Fair CLR 66.2 39.2 37% 29.99 0.0
06 18:35 NE 14 10.00 Fair CLR 68 39.2 35% 29.98 0.0
06 18:11 NE 10 G 17 10.00 A Few Clouds FEW060 68 39.2 35% 29.99 0.0
06 17:55 N 14 10.00 Fair CLR 66.2 39.2 37% 29.99 0.0
06 17:35 N 12 G 22 10.00 Fair CLR 68 39.2 35% 29.98 0.0
06 17:15 NE 12 G 21 10.00 Fair CLR 69.8 41 35% 29.98 0.0
06 16:55 NE 12 10.00 Fair CLR 69.8 39.2 33% 29.97 0.0
06 16:35 E 12 10.00 Fair CLR 68 41 38% 29.97 0.0
06 16:15 NE 8 G 21 10.00 Fair CLR 68 41 38% 29.98 0.0
06 15:55 NE 13 10.00 Fair CLR 68 41 38% 29.98 0.0
06 15:35 NE 13 G 18 10.00 A Few Clouds FEW050 68 41 38% 29.99 0.0
06 15:15 N 9 G 18 10.00 Partly Cloudy SCT050 66.2 41 40% 30 0.0
06 14:55 N 8 G 18 10.00 Partly Cloudy SCT048 66.2 42.8 43% 30 0.0
06 14:38 NE 12 G 18 10.00 A Few Clouds FEW044 66.2 42.8 43% 30.01 0.0
06 14:15 NE 13 10.00 Partly Cloudy SCT044 66.2 42.8 43% 30.01 0.0
06 13:55 N 12 G 17 10.00 Mostly Cloudy BKN043 64.4 42.8 46% 30.01 0.0
06 13:35 NE 8 G 16 10.00 Partly Cloudy SCT041 64.4 42.8 46% 30.02 0.0
06 13:15 N 12 G 18 10.00 Partly Cloudy SCT040 62.6 42.8 49% 30.02 0.0
06 12:55 N 14 10.00 Mostly Cloudy BKN039 62.6 41 45% 30.03 0.0
06 12:36 E 10 G 17 10.00 Mostly Cloudy BKN037 62.6 42.8 49% 30.04 0.0
06 12:16 NE 8 G 20 10.00 Partly Cloudy SCT036 60.8 42.8 52% 30.04 0.0
06 11:52 E 12 G 17 10.00 A Few Clouds FEW032 60.8 42.8 52% 30.04 0.0
06 11:30 NE 13 G 20 10.00 Partly Cloudy SCT030 57.2 41 55% 30.05 0.0
06 11:15 NE 14 10.00 Mostly Cloudy BKN029 57.2 42.8 59% 30.05 0.0
06 10:55 NE 14 10.00 Mostly Cloudy BKN029 57.2 42.8 59% 30.05 0.0
06 10:35 NE 16 G 23 10.00 Partly Cloudy SCT028 SCT140 57.2 41 55% 30.06 0.0
06 10:15 NE 17 G 24 10.00 Mostly Cloudy BKN140 55.4 41 59% 30.05 0.0
06 09:58 NE 20 10.00 Overcast OVC150 53.6 41 63% 30.04 0.0
06 09:35 NE 21 10.00 Overcast and Breezy OVC140 53.6 41 63% 30.03 0.0
06 09:15 NE 17 10.00 Overcast OVC140 51.8 41 67% 30.03 0.0
06 08:55 NE 20 10.00 Overcast OVC140 51.8 41 67% 30.01 0.0
06 08:35 NE 15 G 23 10.00 Mostly Cloudy BKN140 50 41 71% 45 30.01 0.0
06 08:15 NE 17 10.00 A Few Clouds FEW140 50 41 71% 45 30.02 0.0
06 07:55 NE 16 G 22 10.00 Mostly Cloudy BKN150 50 41 71% 45 30.01 0.0
06 07:27 NE 13 10.00 Overcast OVC150 48.2 41 76% 43 30.02 0.0
06 07:15 N 13 10.00 Overcast OVC150 48.2 41 76% 43 30.01 0.0
06 06:55 NE 13 10.00 Overcast SCT042 OVC150 48.2 41 76% 43 29.99 0.0
Date Time (cdt) Wind (mph) Vis. (mi.) Weather Sky Cond. Air Dwpt Max. Min. Relative Humidity Wind Chill (°F) Heat Index (°F) altimeter (in) sea level (mb) 1 hr 3 hr 6 hr
6 hour
Temperature (ºF) Pressure Precipitation (in)